createdAt,value
2019-05-13T00:01:43.473Z,100492.05
2019-05-13T00:04:10.829Z,100491.84
2019-05-13T00:06:50.365Z,100491.41
2019-05-13T00:09:06.791Z,100492.46
2019-05-13T00:11:34.587Z,100485.54
2019-05-13T00:14:04.485Z,100483.45
2019-05-13T00:16:33.599Z,100480.54
2019-05-13T00:19:00.316Z,100479.27
2019-05-13T00:21:27.360Z,100484.29
2019-05-13T00:23:54.636Z,100488.09
2019-05-13T00:26:21.470Z,100481.45
2019-05-13T00:28:48.379Z,100478.37
2019-05-13T00:31:15.401Z,100478.75
2019-05-13T00:33:44.408Z,100474.58
2019-05-13T00:36:11.253Z,100471.59
2019-05-13T00:38:38.510Z,100472.79
2019-05-13T00:41:05.303Z,100464.18
2019-05-13T00:43:33.824Z,100468.00
2019-05-13T00:46:00.967Z,100470.01
2019-05-13T00:48:29.796Z,100473.83
2019-05-13T00:50:56.706Z,100465.30
2019-05-13T00:53:23.811Z,100473.83
2019-05-13T00:55:53.434Z,100478.33
2019-05-13T00:58:20.181Z,100475.69
2019-05-13T01:00:47.379Z,100475.94
2019-05-13T01:03:14.295Z,100465.47
2019-05-13T01:05:44.221Z,100462.33
2019-05-13T01:08:10.541Z,100464.03
2019-05-13T01:10:38.200Z,100466.81
2019-05-13T01:13:05.203Z,100461.84
2019-05-13T01:15:34.556Z,100465.72
2019-05-13T01:18:00.694Z,100466.46
2019-05-13T01:20:27.993Z,100464.77
2019-05-13T01:22:55.293Z,100471.25
2019-05-13T01:25:24.257Z,100467.55
2019-05-13T01:27:53.775Z,100457.84
2019-05-13T01:30:21.181Z,100465.52
2019-05-13T01:32:48.057Z,100466.75
2019-05-13T01:35:15.397Z,100461.91
2019-05-13T01:37:45.968Z,100457.80
2019-05-13T01:40:15.178Z,100456.98
2019-05-13T01:42:44.333Z,100460.48
2019-05-13T01:45:13.760Z,100461.29
2019-05-13T01:47:44.118Z,100461.47
2019-05-13T01:50:14.017Z,100462.53
2019-05-13T01:52:40.422Z,100457.41
2019-05-13T01:55:08.110Z,100459.08
2019-05-13T01:57:35.491Z,100461.30
2019-05-13T02:00:07.376Z,100458.23
2019-05-13T02:02:34.169Z,100461.46
2019-05-13T02:05:03.782Z,100458.70
2019-05-13T02:07:30.446Z,100470.32
2019-05-13T02:09:58.717Z,100476.44
2019-05-13T02:12:25.816Z,100479.06
2019-05-13T02:14:53.399Z,100475.56
2019-05-13T02:17:20.425Z,100477.98
2019-05-13T02:19:47.676Z,100478.42
2019-05-13T02:22:14.826Z,100479.55
2019-05-13T02:24:41.680Z,100482.75
2019-05-13T02:27:08.527Z,100483.56
2019-05-13T02:29:35.268Z,100484.09
2019-05-13T02:32:03.220Z,100484.02
2019-05-13T02:34:32.190Z,100486.38
2019-05-13T02:36:59.100Z,100493.34
2019-05-13T02:39:26.520Z,100494.52
2019-05-13T02:41:53.663Z,100490.41
2019-05-13T02:44:22.559Z,100485.51
2019-05-13T02:46:52.294Z,100480.80
2019-05-13T02:49:18.190Z,100491.93
2019-05-13T02:51:45.163Z,100490.05
2019-05-13T02:54:12.821Z,100494.02
2019-05-13T02:56:42.222Z,100495.02
2019-05-13T02:59:13.007Z,100492.30
2019-05-13T03:01:38.146Z,100497.06
2019-05-13T03:04:05.802Z,100496.92
2019-05-13T03:06:33.435Z,100497.89
2019-05-13T03:09:03.111Z,100497.16
2019-05-13T03:11:32.885Z,100495.84
2019-05-13T03:13:58.683Z,100494.06
2019-05-13T03:16:42.633Z,100502.53
2019-05-13T03:19:08.350Z,100506.16
2019-05-13T03:21:35.520Z,100511.15
2019-05-13T03:24:03.755Z,100513.96
2019-05-13T03:26:32.135Z,100516.55
2019-05-13T03:29:02.809Z,100517.76
2019-05-13T03:31:35.235Z,100517.50
2019-05-13T03:33:58.545Z,100520.14
2019-05-13T03:36:26.648Z,100520.98
2019-05-13T03:39:05.317Z,100527.59
2019-05-13T03:41:26.388Z,100521.84
2019-05-13T03:43:56.378Z,100525.88
2019-05-13T03:46:25.134Z,100532.48
2019-05-13T03:48:53.061Z,100529.25
2019-05-13T03:51:22.449Z,100535.47
2019-05-13T03:53:53.219Z,100539.69
2019-05-13T03:56:18.652Z,100537.24
2019-05-13T03:58:45.752Z,100544.38
2019-05-13T04:01:13.580Z,100533.83
2019-05-13T04:03:44.095Z,100535.17
2019-05-13T04:06:13.526Z,100536.07
2019-05-13T04:08:42.995Z,100534.80
2019-05-13T04:11:08.540Z,100537.06
2019-05-13T04:13:35.812Z,100548.26
2019-05-13T04:16:04.406Z,100544.42
2019-05-13T04:18:32.129Z,100541.55
2019-05-13T04:21:02.757Z,100541.55
2019-05-13T04:23:32.032Z,100537.55
2019-05-13T04:25:58.049Z,100542.41
2019-05-13T04:28:28.201Z,100549.03
2019-05-13T04:30:55.174Z,100544.88
2019-05-13T04:33:24.539Z,100541.94
2019-05-13T04:35:52.943Z,100544.25
2019-05-13T04:38:22.783Z,100541.75
2019-05-13T04:40:52.649Z,100527.77
2019-05-13T04:43:18.903Z,100540.66
2019-05-13T04:45:46.297Z,100544.33
2019-05-13T04:48:13.180Z,100539.98
2019-05-13T04:50:42.917Z,100548.11
2019-05-13T04:53:08.923Z,100546.75
2019-05-13T04:55:35.988Z,100547.91
2019-05-13T04:58:03.714Z,100551.22
2019-05-13T05:01:08.870Z,100558.14
2019-05-13T05:03:53.109Z,100557.98
2019-05-13T05:06:33.137Z,100567.02
2019-05-13T05:09:26.901Z,100575.64
2019-05-13T05:12:34.471Z,100578.33
2019-05-13T05:15:33.673Z,100574.34
2019-05-13T05:18:56.120Z,100573.97
2019-05-13T05:21:37.650Z,100574.66
2019-05-13T05:24:34.112Z,100575.52
2019-05-13T05:27:18.322Z,100569.40
2019-05-13T05:30:11.720Z,100571.34
2019-05-13T05:33:01.951Z,100563.36
2019-05-13T05:35:52.198Z,100561.50
2019-05-13T05:38:31.807Z,100559.18
2019-05-13T05:41:01.781Z,100559.58
2019-05-13T05:43:32.046Z,100562.74
2019-05-13T05:46:01.943Z,100560.41
2019-05-13T05:48:31.534Z,100558.11
2019-05-13T05:51:01.979Z,100564.28
2019-05-13T05:53:33.374Z,100565.87
2019-05-13T05:56:02.775Z,100561.63
2019-05-13T05:58:32.397Z,100558.50
2019-05-13T06:01:02.458Z,100561.48
2019-05-13T06:03:33.983Z,100558.22
2019-05-13T06:06:01.889Z,100561.88
2019-05-13T06:08:28.971Z,100560.11
2019-05-13T06:10:56.350Z,100565.83
2019-05-13T06:13:24.019Z,100561.37
2019-05-13T06:15:51.375Z,100572.84
2019-05-13T06:18:18.646Z,100570.94
2019-05-13T06:20:45.642Z,100566.78
2019-05-13T06:23:12.927Z,100564.49
2019-05-13T06:25:42.736Z,100567.31
2019-05-13T06:28:09.169Z,100568.89
2019-05-13T06:30:36.140Z,100572.18
2019-05-13T06:33:03.502Z,100563.13
2019-05-13T06:35:32.338Z,100561.92
2019-05-13T06:38:01.405Z,100567.09
2019-05-13T06:40:28.340Z,100567.02
2019-05-13T06:42:55.132Z,100563.35
2019-05-13T06:45:22.273Z,100567.51
2019-05-13T06:47:51.995Z,100566.68
2019-05-13T06:50:18.024Z,100563.95
2019-05-13T06:52:45.280Z,100560.11
2019-05-13T06:55:12.286Z,100556.72
2019-05-13T06:57:39.037Z,100557.09
2019-05-13T07:00:07.049Z,100560.23
2019-05-13T07:02:34.294Z,100551.28
2019-05-13T07:05:02.369Z,100552.78
2019-05-13T07:07:31.717Z,100549.91
2019-05-13T07:09:58.343Z,100552.49
2019-05-13T07:12:25.417Z,100556.80
2019-05-13T07:14:52.221Z,100561.05
2019-05-13T07:17:22.063Z,100550.29
2019-05-13T07:19:47.896Z,100549.30
2019-05-13T07:22:14.696Z,100550.25
2019-05-13T07:24:42.015Z,100546.59
2019-05-13T07:27:09.268Z,100548.89
2019-05-13T07:29:36.439Z,100544.72
2019-05-13T07:32:03.485Z,100543.72
2019-05-13T07:34:33.462Z,100536.22
2019-05-13T07:37:01.754Z,100543.40
2019-05-13T07:39:28.306Z,100549.73
2019-05-13T07:41:55.187Z,100548.20
2019-05-13T07:44:22.412Z,100546.12
2019-05-13T07:46:52.094Z,100546.58
2019-05-13T07:49:18.101Z,100553.41
2019-05-13T07:51:44.953Z,100545.34
2019-05-13T07:54:11.937Z,100544.86
2019-05-13T07:56:38.757Z,100539.28
2019-05-13T07:59:05.722Z,100542.88
2019-05-13T08:01:32.926Z,100535.63
2019-05-13T08:04:02.184Z,100534.91
2019-05-13T08:06:28.770Z,100543.65
2019-05-13T08:08:55.935Z,100542.36
2019-05-13T08:11:24.043Z,100536.69
2019-05-13T08:13:51.921Z,100547.12
2019-05-13T08:16:18.674Z,100540.17
2019-05-13T08:18:45.536Z,100544.83
2019-05-13T08:21:12.698Z,100541.03
2019-05-13T08:23:41.733Z,100539.72
2019-05-13T08:26:08.317Z,100535.44
2019-05-13T08:28:35.074Z,100532.80
2019-05-13T08:31:02.399Z,100537.45
2019-05-13T08:33:31.905Z,100537.45
2019-05-13T08:35:58.802Z,100534.98
2019-05-13T08:38:26.574Z,100534.22
2019-05-13T08:40:53.485Z,100533.69
2019-05-13T08:43:22.572Z,100526.64
2019-05-13T08:45:51.168Z,100525.56
2019-05-13T08:50:45.072Z,100535.92
2019-05-13T08:53:12.413Z,100532.41
2019-05-13T08:55:41.789Z,100534.02
2019-05-13T08:58:08.247Z,100527.50
2019-05-13T09:01:02.205Z,100526.95
2019-05-13T09:03:32.297Z,100525.58
2019-05-13T09:05:57.994Z,100531.28
2019-05-13T09:08:25.991Z,100528.83
2019-05-13T09:10:56.768Z,100522.52
2019-05-13T09:13:22.578Z,100525.80
2019-05-13T09:15:51.647Z,100522.48
2019-05-13T09:18:18.873Z,100529.20
2019-05-13T09:20:45.906Z,100524.48
2019-05-13T09:23:12.892Z,100513.53
2019-05-13T09:25:41.544Z,100518.70
2019-05-13T09:28:09.107Z,100528.48
2019-05-13T09:30:36.051Z,100525.09
2019-05-13T09:33:03.014Z,100519.33
2019-05-13T09:35:31.565Z,100515.57
2019-05-13T09:37:58.630Z,100516.30
2019-05-13T09:40:25.390Z,100514.60
2019-05-13T09:42:55.243Z,100518.03
2019-05-13T09:45:21.659Z,100526.69
2019-05-13T09:47:48.607Z,100519.73
2019-05-13T09:50:28.383Z,100522.59
2019-05-13T09:52:47.595Z,100519.50
2019-05-13T09:55:26.333Z,100524.92
2019-05-13T09:57:43.440Z,100517.44
2019-05-13T10:00:12.296Z,100519.60
2019-05-13T10:02:39.191Z,100516.20
2019-05-13T10:05:06.535Z,100516.41
2019-05-13T10:07:33.533Z,100508.94
2019-05-13T10:10:01.886Z,100504.95
2019-05-13T10:12:31.609Z,100506.39
2019-05-13T10:14:57.735Z,100500.09
2019-05-13T10:17:24.729Z,100506.94
2019-05-13T10:19:52.146Z,100508.39
2019-05-13T10:22:22.164Z,100502.64
2019-05-13T10:24:51.976Z,100504.36
2019-05-13T10:27:22.381Z,100498.62
2019-05-13T10:29:51.815Z,100492.95
2019-05-13T10:32:21.741Z,100498.44
2019-05-13T10:34:48.242Z,100492.73
2019-05-13T10:37:15.619Z,100488.68
2019-05-13T10:39:42.586Z,100493.68
2019-05-13T10:42:11.811Z,100491.46
2019-05-13T10:44:38.034Z,100486.72
2019-05-13T10:47:05.118Z,100479.90
2019-05-13T10:49:33.182Z,100479.90
2019-05-13T10:52:02.863Z,100472.87
2019-05-13T10:54:28.962Z,100473.30
2019-05-13T10:56:59.377Z,100476.87
2019-05-13T10:59:24.518Z,100472.11
2019-05-13T11:01:51.262Z,100474.06
2019-05-13T11:04:18.211Z,100476.77
2019-05-13T11:06:45.410Z,100469.88
2019-05-13T11:09:42.160Z,100477.22
2019-05-13T11:12:07.311Z,100469.84
2019-05-13T11:14:34.267Z,100473.91
2019-05-13T11:17:01.811Z,100466.61
2019-05-13T11:19:34.356Z,100469.96
2019-05-13T11:21:59.219Z,100464.45
2019-05-13T11:24:27.002Z,100467.42
2019-05-13T11:26:54.134Z,100473.22
2019-05-13T11:29:22.973Z,100471.95
2019-05-13T11:31:52.280Z,100470.18
2019-05-13T11:34:18.483Z,100471.30
2019-05-13T11:36:48.293Z,100462.44
2019-05-13T11:39:15.073Z,100472.92
2019-05-13T11:41:43.103Z,100469.02
2019-05-13T11:44:16.165Z,100461.95
2019-05-13T11:46:42.786Z,100474.23
2019-05-13T11:49:08.102Z,100462.56
2019-05-13T11:51:34.967Z,100463.17
2019-05-13T11:54:02.561Z,100445.23
2019-05-13T11:56:33.408Z,100456.24
2019-05-13T11:58:58.315Z,100445.74
2019-05-13T12:01:25.255Z,100443.73
2019-05-13T12:03:53.036Z,100446.97
2019-05-13T12:06:23.224Z,100445.91
2019-05-13T12:08:52.068Z,100455.77
2019-05-13T12:11:17.859Z,100445.30
2019-05-13T12:13:45.219Z,100432.68
2019-05-13T12:16:12.834Z,100453.70
2019-05-13T12:18:43.676Z,100441.64
2019-05-13T12:21:09.237Z,100436.00
2019-05-13T12:23:36.042Z,100423.34
2019-05-13T12:26:04.075Z,100430.81
2019-05-13T12:28:32.958Z,100444.03
2019-05-13T12:31:03.369Z,100443.23
2019-05-13T12:33:33.167Z,100439.81
2019-05-13T12:36:01.995Z,100431.24
2019-05-13T12:38:32.565Z,100441.52
2019-05-13T12:40:59.050Z,100455.41
2019-05-13T12:43:26.071Z,100452.22
2019-05-13T12:45:53.495Z,100446.72
2019-05-13T12:48:22.973Z,100435.22
2019-05-13T12:50:52.954Z,100442.68
2019-05-13T12:53:18.595Z,100433.29
2019-05-13T12:55:52.331Z,100435.31
2019-05-13T12:58:14.619Z,100443.95
2019-05-13T13:00:43.397Z,100443.55
2019-05-13T13:03:13.242Z,100427.16
2019-05-13T13:05:43.236Z,100424.73
2019-05-13T13:08:24.508Z,100434.50
2019-05-13T13:10:37.975Z,100432.13
2019-05-13T13:13:04.946Z,100422.83
2019-05-13T13:15:38.244Z,100416.37
2019-05-13T13:18:03.316Z,100420.27
2019-05-13T13:20:33.563Z,100419.87
2019-05-13T13:22:59.103Z,100410.02
2019-05-13T13:25:25.944Z,100408.13
2019-05-13T13:28:10.665Z,100408.50
2019-05-13T13:30:22.231Z,100418.98
2019-05-13T13:32:54.209Z,100414.62
2019-05-13T13:35:21.806Z,100403.77
2019-05-13T13:37:48.792Z,100400.17
2019-05-13T13:40:24.506Z,100396.08
2019-05-13T13:42:46.990Z,100385.63
2019-05-13T13:45:14.194Z,100394.78
2019-05-13T13:47:45.385Z,100396.14
2019-05-13T13:50:11.819Z,100392.02
2019-05-13T13:52:39.321Z,100392.59
2019-05-13T13:55:08.787Z,100391.55
2019-05-13T13:57:35.191Z,100382.48
2019-05-13T14:00:24.925Z,100383.43
2019-05-13T14:02:37.023Z,100379.52
2019-05-13T14:05:05.943Z,100385.44
2019-05-13T14:07:37.824Z,100382.63
2019-05-13T14:10:07.111Z,100386.84
2019-05-13T14:12:34.012Z,100376.12
2019-05-13T14:15:02.041Z,100391.03
2019-05-13T14:17:31.273Z,100384.19
2019-05-13T14:19:58.532Z,100385.11
2019-05-13T14:22:26.016Z,100373.76
2019-05-13T14:24:53.343Z,100382.39
2019-05-13T14:27:22.416Z,100382.56
2019-05-13T14:29:50.229Z,100380.59
2019-05-13T14:32:17.795Z,100378.36
2019-05-13T14:34:46.185Z,100369.59
2019-05-13T14:37:13.158Z,100374.16
2019-05-13T14:39:40.287Z,100367.10
2019-05-13T14:42:07.415Z,100361.41
2019-05-13T14:44:34.176Z,100356.80
2019-05-13T14:47:03.562Z,100346.38
2019-05-13T14:49:31.710Z,100343.02
2019-05-13T14:52:00.755Z,100356.43
2019-05-13T14:54:27.622Z,100353.30
2019-05-13T14:56:54.794Z,100347.33
2019-05-13T14:59:22.161Z,100347.55
2019-05-13T15:01:51.699Z,100340.85
2019-05-13T15:04:18.098Z,100337.40
2019-05-13T15:06:45.105Z,100338.05
2019-05-13T15:09:12.822Z,100338.97
2019-05-13T15:11:41.920Z,100331.42
2019-05-13T15:14:11.499Z,100337.17
2019-05-13T15:16:37.941Z,100336.69
2019-05-13T15:19:04.890Z,100341.62
2019-05-13T15:21:32.183Z,100336.38
2019-05-13T15:23:59.245Z,100334.98
2019-05-13T15:26:26.506Z,100339.22
2019-05-13T15:28:53.620Z,100338.67
2019-05-13T15:31:22.081Z,100338.39
2019-05-13T15:33:49.211Z,100331.16
2019-05-13T15:36:15.987Z,100327.53
2019-05-13T15:38:42.856Z,100331.57
2019-05-13T15:41:14.684Z,100325.50
2019-05-13T15:43:42.450Z,100327.25
2019-05-13T15:46:09.457Z,100325.88
2019-05-13T15:48:36.614Z,100324.61
2019-05-13T15:51:04.087Z,100329.77
2019-05-13T15:53:32.162Z,100326.03
2019-05-13T15:55:59.337Z,100313.84
2019-05-13T15:58:38.391Z,100314.58
2019-05-13T16:00:54.896Z,100316.57
2019-05-13T16:03:22.028Z,100326.52
2019-05-13T16:05:51.477Z,100317.90
2019-05-13T16:08:17.666Z,100318.17
2019-05-13T16:10:44.753Z,100319.38
2019-05-13T16:13:12.328Z,100316.64
2019-05-13T16:15:41.594Z,100314.97
2019-05-13T16:18:07.934Z,100316.34
2019-05-13T16:20:35.478Z,100315.41
2019-05-13T16:23:03.396Z,100314.15
2019-05-13T16:25:31.906Z,100309.39
2019-05-13T16:28:01.208Z,100308.63
2019-05-13T16:30:28.102Z,100306.47
2019-05-13T16:32:55.137Z,100308.56
2019-05-13T16:35:22.029Z,100300.16
2019-05-13T16:37:49.219Z,100309.02
2019-05-13T16:40:16.361Z,100297.36
2019-05-13T16:42:43.358Z,100301.41
2019-05-13T16:45:12.831Z,100304.11
2019-05-13T16:47:55.898Z,100298.77
2019-05-13T16:50:11.490Z,100297.21
2019-05-13T16:52:38.648Z,100305.33
2019-05-13T16:55:06.633Z,100301.07
2019-05-13T16:57:33.440Z,100305.82
2019-05-13T17:00:03.597Z,100304.04
2019-05-13T17:02:31.057Z,100305.77
2019-05-13T17:05:01.404Z,100305.50
2019-05-13T17:07:28.609Z,100303.38
2019-05-13T17:09:56.027Z,100301.27
2019-05-13T17:12:22.899Z,100302.73
2019-05-13T17:14:52.029Z,100296.58
2019-05-13T17:17:18.530Z,100308.97
2019-05-13T17:19:45.715Z,100301.09
2019-05-13T17:22:13.016Z,100309.09
2019-05-13T17:24:42.481Z,100312.66
2019-05-13T17:27:09.413Z,100303.33
2019-05-13T17:29:36.188Z,100307.27
2019-05-13T17:32:03.029Z,100308.91
2019-05-13T17:34:31.889Z,100304.61
2019-05-13T17:36:58.636Z,100301.96
2019-05-13T17:39:25.665Z,100293.18
2019-05-13T17:41:52.572Z,100295.49
2019-05-13T17:44:22.506Z,100298.37
2019-05-13T17:46:52.039Z,100297.83
2019-05-13T17:49:18.652Z,100308.25
2019-05-13T17:51:45.417Z,100306.09
2019-05-13T17:54:12.344Z,100300.77
2019-05-13T17:56:39.194Z,100306.81
2019-05-13T17:59:06.008Z,100305.81
2019-05-13T18:01:33.161Z,100310.84
2019-05-13T18:04:02.268Z,100309.80
2019-05-13T18:06:28.661Z,100311.55
2019-05-13T18:08:55.444Z,100308.81
2019-05-13T18:11:22.316Z,100309.17
2019-05-13T18:13:51.704Z,100305.13
2019-05-13T18:16:18.376Z,100310.02
2019-05-13T18:18:47.560Z,100311.72
2019-05-13T18:21:14.340Z,100310.75
2019-05-13T18:23:41.529Z,100303.14
2019-05-13T18:26:12.431Z,100309.71
2019-05-13T18:28:42.009Z,100302.03
2019-05-13T18:31:12.256Z,100300.48
2019-05-13T18:33:39.122Z,100307.39
2019-05-13T18:36:05.951Z,100303.92
2019-05-13T18:38:32.797Z,100301.31
2019-05-13T18:41:01.734Z,100301.01
2019-05-13T18:43:28.662Z,100301.31
2019-05-13T18:45:55.540Z,100307.95
2019-05-13T18:48:22.668Z,100299.75
2019-05-13T18:50:52.109Z,100309.17
2019-05-13T18:53:18.703Z,100305.42
2019-05-13T18:55:45.762Z,100305.44
2019-05-13T18:58:12.621Z,100308.78
2019-05-13T19:00:41.600Z,100306.05
2019-05-13T19:03:08.568Z,100311.78
2019-05-13T19:05:35.467Z,100313.80
2019-05-13T19:08:02.856Z,100313.68
2019-05-13T19:10:31.278Z,100313.51
2019-05-13T19:13:01.192Z,100316.23
2019-05-13T19:15:27.936Z,100316.28
2019-05-13T19:17:55.062Z,100318.83
2019-05-13T19:20:22.115Z,100312.09
2019-05-13T19:22:51.684Z,100313.19
2019-05-13T19:25:18.581Z,100318.95
2019-05-13T19:27:45.800Z,100324.48
2019-05-13T19:30:15.104Z,100329.44
2019-05-13T19:32:41.911Z,100329.47
2019-05-13T19:35:11.649Z,100329.30
2019-05-13T19:37:38.688Z,100328.78
2019-05-13T19:40:06.092Z,100326.89
2019-05-13T19:42:33.056Z,100328.27
2019-05-13T19:45:01.944Z,100327.20
2019-05-13T19:47:28.950Z,100329.97
2019-05-13T19:49:55.701Z,100330.55
2019-05-13T19:52:22.913Z,100328.37
2019-05-13T19:54:51.425Z,100331.13
2019-05-13T19:57:21.100Z,100326.78
2019-05-13T19:59:47.517Z,100329.27
2019-05-13T20:02:14.417Z,100327.66
2019-05-13T20:04:41.547Z,100331.22
2019-05-13T20:07:08.958Z,100330.41
2019-05-13T20:09:35.736Z,100332.06
2019-05-13T20:12:04.856Z,100332.06
2019-05-13T20:14:31.708Z,100334.23
2019-05-13T20:17:01.723Z,100325.20
2019-05-13T20:19:42.718Z,100333.31
2019-05-13T20:21:58.027Z,100332.52
2019-05-13T20:24:24.940Z,100330.30
2019-05-13T20:26:52.293Z,100328.36
2019-05-13T20:29:19.627Z,100332.13
2019-05-13T20:31:46.393Z,100332.09
2019-05-13T20:34:13.264Z,100331.03
2019-05-13T20:36:42.066Z,100334.80
2019-05-13T20:39:08.893Z,100335.34
2019-05-13T20:41:36.302Z,100332.33
2019-05-13T20:44:03.194Z,100328.32
2019-05-13T20:46:32.540Z,100324.09
2019-05-13T20:48:59.415Z,100325.92
2019-05-13T20:51:26.276Z,100327.81
2019-05-13T20:53:53.068Z,100331.39
2019-05-13T20:56:21.441Z,100330.22
2019-05-13T20:58:48.591Z,100328.22
2019-05-13T21:01:15.500Z,100332.78
2019-05-13T21:03:42.377Z,100325.88
2019-05-13T21:06:11.582Z,100329.44
2019-05-13T21:08:38.219Z,100327.66
2019-05-13T21:11:05.063Z,100325.98
2019-05-13T21:13:32.084Z,100323.00
2019-05-13T21:16:02.047Z,100322.89
2019-05-13T21:18:28.323Z,100321.32
2019-05-13T21:20:55.416Z,100322.38
2019-05-13T21:23:22.684Z,100317.38
2019-05-13T21:25:51.054Z,100317.67
2019-05-13T21:28:19.069Z,100319.76
2019-05-13T21:30:46.433Z,100320.09
2019-05-13T21:33:13.825Z,100322.91
2019-05-13T21:35:41.931Z,100315.23
2019-05-13T21:38:11.328Z,100320.70
2019-05-13T21:40:38.760Z,100316.36
2019-05-13T21:43:06.108Z,100317.48
2019-05-13T21:45:32.961Z,100313.94
2019-05-13T21:48:01.706Z,100312.05
2019-05-13T21:50:34.155Z,100310.27
2019-05-13T21:52:57.640Z,100310.28
2019-05-13T21:55:25.021Z,100314.33
2019-05-13T21:57:53.065Z,100314.23
2019-05-13T22:00:25.296Z,100316.09
2019-05-13T22:02:52.434Z,100313.77
2019-05-13T22:05:19.192Z,100318.16
2019-05-13T22:07:46.215Z,100318.78
2019-05-13T22:10:13.464Z,100318.59
2019-05-13T22:12:41.504Z,100319.65
2019-05-13T22:15:09.433Z,100315.30
2019-05-13T22:17:36.275Z,100312.03
2019-05-13T22:20:07.317Z,100324.11
2019-05-13T22:22:34.276Z,100316.05
2019-05-13T22:25:02.059Z,100317.40
2019-05-13T22:27:29.009Z,100314.09
2019-05-13T22:29:55.911Z,100311.63
2019-05-13T22:32:22.843Z,100306.11
2019-05-13T22:34:51.192Z,100315.30
2019-05-13T22:37:18.771Z,100311.60
2019-05-13T22:39:46.445Z,100313.84
2019-05-13T22:42:13.410Z,100313.34
2019-05-13T22:44:41.726Z,100311.84
2019-05-13T22:47:13.005Z,100309.30
2019-05-13T22:49:37.917Z,100305.13
2019-05-13T22:52:04.717Z,100309.50
2019-05-13T22:54:31.941Z,100302.11
2019-05-13T22:56:59.195Z,100303.66
2019-05-13T22:59:26.217Z,100299.51
2019-05-13T23:01:53.141Z,100301.23
2019-05-13T23:04:19.988Z,100301.98
2019-05-13T23:06:47.099Z,100300.66
2019-05-13T23:09:13.877Z,100303.45
2019-05-13T23:11:41.791Z,100303.23
2019-05-13T23:14:10.888Z,100297.95
2019-05-13T23:16:37.520Z,100299.38
2019-05-13T23:19:04.404Z,100305.32
2019-05-13T23:21:31.823Z,100294.87
2019-05-13T23:23:59.004Z,100294.88
2019-05-13T23:26:26.139Z,100283.41
2019-05-13T23:28:53.339Z,100288.20
2019-05-13T23:31:20.080Z,100288.36
2019-05-13T23:33:46.973Z,100284.90
2019-05-13T23:36:13.816Z,100288.51
2019-05-13T23:38:41.416Z,100281.66
2019-05-13T23:41:08.474Z,100281.64
2019-05-13T23:43:35.583Z,100280.30
2019-05-13T23:46:02.540Z,100271.55
2019-05-13T23:48:31.874Z,100275.98
2019-05-13T23:50:58.794Z,100272.00
2019-05-13T23:53:26.148Z,100270.66
2019-05-13T23:55:53.015Z,100268.91
2019-05-13T23:58:21.683Z,100263.59
